createdAt,value
2018-09-27T00:02:26.838Z,5.77
2018-09-27T00:04:55.365Z,6.47
2018-09-27T00:07:23.948Z,7.37
2018-09-27T00:09:52.437Z,4.20
2018-09-27T00:12:21.005Z,5.20
2018-09-27T00:14:49.558Z,4.20
2018-09-27T00:17:18.165Z,4.43
2018-09-27T00:19:46.736Z,7.37
2018-09-27T00:22:15.356Z,4.87
2018-09-27T00:24:43.977Z,4.43
2018-09-27T00:27:12.551Z,4.40
2018-09-27T00:29:41.104Z,3.13
2018-09-27T00:32:09.772Z,5.97
2018-09-27T00:34:38.507Z,5.00
2018-09-27T00:37:07.055Z,5.10
2018-09-27T00:39:35.581Z,8.37
2018-09-27T00:42:04.179Z,4.67
2018-09-27T00:44:32.707Z,5.70
2018-09-27T00:47:01.332Z,5.67
2018-09-27T00:49:29.956Z,4.17
2018-09-27T00:51:58.591Z,3.87
2018-09-27T00:54:27.056Z,6.93
2018-09-27T00:56:55.623Z,7.37
2018-09-27T00:59:24.213Z,5.87
2018-09-27T01:01:52.769Z,4.57
2018-09-27T01:04:21.293Z,4.77
2018-09-27T01:06:49.843Z,4.90
2018-09-27T01:09:18.354Z,7.27
2018-09-27T01:11:46.935Z,5.00
2018-09-27T01:14:15.552Z,9.30
2018-09-27T01:16:44.196Z,5.17
2018-09-27T01:19:12.853Z,4.93
2018-09-27T01:21:41.544Z,5.43
2018-09-27T01:24:10.079Z,4.27
2018-09-27T01:26:38.600Z,7.47
2018-09-27T01:29:07.093Z,4.50
2018-09-27T01:31:35.694Z,4.37
2018-09-27T01:34:04.322Z,4.93
2018-09-27T01:36:32.973Z,4.40
2018-09-27T01:39:01.577Z,6.77
2018-09-27T01:41:30.099Z,4.57
2018-09-27T01:43:58.627Z,2.73
2018-09-27T01:46:27.206Z,4.03
2018-09-27T01:48:55.852Z,3.97
2018-09-27T01:51:24.422Z,6.17
2018-09-27T01:53:52.883Z,6.93
2018-09-27T01:56:21.432Z,4.23
2018-09-27T01:58:49.965Z,5.73
2018-09-27T02:01:18.455Z,7.93
2018-09-27T02:03:46.936Z,4.27
2018-09-27T02:06:15.378Z,5.80
2018-09-27T02:08:43.876Z,5.00
2018-09-27T02:11:12.584Z,4.40
2018-09-27T02:13:41.239Z,4.40
2018-09-27T02:16:09.832Z,3.70
2018-09-27T02:18:38.381Z,4.77
2018-09-27T02:21:07.043Z,4.00
2018-09-27T02:23:36.082Z,5.13
2018-09-27T02:26:04.736Z,3.20
2018-09-27T02:28:33.384Z,6.90
2018-09-27T02:31:01.970Z,4.90
2018-09-27T02:33:30.577Z,3.73
2018-09-27T02:35:59.160Z,5.03
2018-09-27T02:38:27.924Z,4.10
2018-09-27T02:40:56.464Z,4.57
2018-09-27T02:43:24.985Z,4.57
2018-09-27T02:45:53.486Z,5.67
2018-09-27T02:48:22.008Z,3.67
2018-09-27T02:50:50.598Z,3.40
2018-09-27T02:53:19.152Z,5.03
2018-09-27T02:55:47.608Z,4.73
2018-09-27T02:58:16.130Z,3.83
2018-09-27T03:00:44.701Z,4.23
2018-09-27T03:03:13.349Z,5.00
2018-09-27T03:05:41.877Z,3.90
2018-09-27T03:08:10.447Z,3.30
2018-09-27T03:10:38.936Z,4.00
2018-09-27T03:13:07.403Z,6.80
2018-09-27T03:15:35.879Z,5.33
2018-09-27T03:18:04.390Z,6.03
2018-09-27T03:20:32.950Z,5.33
2018-09-27T03:23:01.482Z,5.87
2018-09-27T03:25:30.058Z,4.70
2018-09-27T03:27:58.693Z,5.30
2018-09-27T03:30:27.169Z,3.57
2018-09-27T03:35:29.504Z,5.17
2018-09-27T03:37:58.149Z,6.60
2018-09-27T03:40:26.802Z,5.37
2018-09-27T03:42:55.300Z,5.43
2018-09-27T03:45:23.820Z,5.60
2018-09-27T03:47:52.325Z,3.73
2018-09-27T03:50:20.823Z,3.10
2018-09-27T03:52:49.318Z,8.67
2018-09-27T03:55:17.832Z,4.83
2018-09-27T03:57:46.333Z,4.20
2018-09-27T04:00:14.812Z,4.87
2018-09-27T04:02:43.417Z,5.70
2018-09-27T04:05:11.941Z,4.00
2018-09-27T04:07:40.532Z,5.67
2018-09-27T04:10:09.107Z,4.90
2018-09-27T04:12:38.071Z,3.17
2018-09-27T04:15:06.624Z,3.70
2018-09-27T04:17:35.186Z,6.70
2018-09-27T04:20:03.689Z,5.90
2018-09-27T04:22:32.222Z,6.53
2018-09-27T04:25:00.768Z,5.27
2018-09-27T04:27:29.297Z,7.40
2018-09-27T04:29:57.795Z,3.17
2018-09-27T04:32:26.378Z,3.73
2018-09-27T04:34:55.078Z,6.33
2018-09-27T04:37:23.722Z,3.57
2018-09-27T04:39:52.342Z,6.43
2018-09-27T04:42:20.964Z,5.63
2018-09-27T04:44:49.483Z,4.87
2018-09-27T04:47:18.471Z,5.70
2018-09-27T04:49:47.056Z,5.57
2018-09-27T04:52:15.693Z,4.97
2018-09-27T04:54:44.481Z,6.67
2018-09-27T04:57:13.141Z,4.63
2018-09-27T04:59:42.238Z,6.23
2018-09-27T05:02:11.059Z,8.03
2018-09-27T05:04:39.712Z,7.87
2018-09-27T05:07:08.424Z,5.57
2018-09-27T05:09:37.239Z,5.60
2018-09-27T05:12:05.931Z,3.97
2018-09-27T05:14:34.610Z,7.93
2018-09-27T05:17:03.286Z,8.17
2018-09-27T05:19:31.955Z,6.10
2018-09-27T05:22:00.603Z,3.90
2018-09-27T05:24:29.273Z,6.73
2018-09-27T05:26:57.951Z,7.50
2018-09-27T05:29:26.594Z,5.53
2018-09-27T05:31:55.382Z,8.43
2018-09-27T05:34:24.185Z,7.03
2018-09-27T05:36:53.384Z,6.43
2018-09-27T05:39:22.194Z,4.07
2018-09-27T05:41:53.241Z,6.60
2018-09-27T05:44:22.103Z,4.60
2018-09-27T05:46:50.954Z,5.13
2018-09-27T05:49:19.717Z,6.53
2018-09-27T05:51:48.452Z,4.10
2018-09-27T05:54:17.222Z,7.40
2018-09-27T05:56:45.893Z,4.47
2018-09-27T05:59:14.883Z,6.43
2018-09-27T06:01:43.634Z,8.87
2018-09-27T06:04:12.483Z,6.03
2018-09-27T06:06:41.217Z,4.70
2018-09-27T06:09:11.935Z,4.87
2018-09-27T06:11:49.102Z,6.40
2018-09-27T06:14:17.896Z,5.40
2018-09-27T06:16:46.890Z,5.00
2018-09-27T06:19:15.712Z,4.30
2018-09-27T06:21:44.500Z,8.37
2018-09-27T06:24:13.217Z,9.10
2018-09-27T06:26:42.571Z,8.43
2018-09-27T06:29:11.183Z,6.83
2018-09-27T06:31:39.898Z,7.77
2018-09-27T06:34:08.609Z,5.57
2018-09-27T06:36:37.245Z,6.10
2018-09-27T06:39:08.160Z,7.43
2018-09-27T06:41:36.770Z,4.37
2018-09-27T06:44:05.427Z,9.47
2018-09-27T06:46:33.957Z,4.23
2018-09-27T06:49:02.673Z,6.17
2018-09-27T06:51:31.495Z,8.20
2018-09-27T06:54:00.134Z,10.20
2018-09-27T06:56:28.846Z,6.40
2018-09-27T06:58:57.533Z,10.93
2018-09-27T07:01:26.252Z,5.87
2018-09-27T07:03:55.086Z,7.80
2018-09-27T07:06:23.810Z,7.67
2018-09-27T07:08:52.384Z,7.80
2018-09-27T07:11:20.951Z,7.60
2018-09-27T07:13:49.542Z,6.30
2018-09-27T07:16:18.120Z,10.60
2018-09-27T07:18:46.845Z,7.10
2018-09-27T07:21:15.480Z,9.43
2018-09-27T07:23:44.122Z,8.20
2018-09-27T07:26:12.955Z,5.87
2018-09-27T07:28:41.790Z,10.13
2018-09-27T07:31:10.449Z,5.60
2018-09-27T07:33:38.943Z,6.77
2018-09-27T07:36:07.527Z,6.33
2018-09-27T07:38:36.181Z,8.30
2018-09-27T07:41:04.713Z,8.13
2018-09-27T07:43:33.245Z,6.80
2018-09-27T07:46:01.840Z,9.33
2018-09-27T07:48:30.500Z,6.07
2018-09-27T07:50:59.281Z,6.67
2018-09-27T07:53:28.462Z,6.67
2018-09-27T07:55:57.103Z,7.40
2018-09-27T07:58:25.742Z,7.37
2018-09-27T08:00:55.528Z,6.53
2018-09-27T08:03:24.261Z,5.80
2018-09-27T08:05:53.077Z,5.57
2018-09-27T08:08:21.748Z,6.63
2018-09-27T08:10:50.486Z,6.90
2018-09-27T08:13:19.112Z,6.87
2018-09-27T08:15:47.811Z,10.23
2018-09-27T08:18:16.439Z,8.83
2018-09-27T08:20:45.337Z,6.53
2018-09-27T08:23:13.732Z,7.27
2018-09-27T08:25:42.732Z,7.73
2018-09-27T08:28:11.452Z,9.60
2018-09-27T08:30:41.058Z,7.50
2018-09-27T08:33:10.241Z,8.40
2018-09-27T08:35:38.994Z,11.12
2018-09-27T08:38:07.684Z,8.23
2018-09-27T08:40:36.355Z,7.67
2018-09-27T08:43:04.989Z,7.08
2018-09-27T08:45:33.648Z,8.48
2018-09-27T08:48:02.072Z,7.35
2018-09-27T08:50:30.648Z,9.98
2018-09-27T08:52:59.464Z,7.90
2018-09-27T08:55:28.171Z,8.75
2018-09-27T08:57:56.787Z,8.75
2018-09-27T09:00:25.576Z,10.95
2018-09-27T09:02:54.153Z,9.05
2018-09-27T09:05:22.696Z,9.68
2018-09-27T09:07:51.505Z,9.48
2018-09-27T09:10:20.226Z,9.98
2018-09-27T09:12:48.783Z,8.38
2018-09-27T09:15:17.401Z,8.98
2018-09-27T09:17:46.098Z,11.35
2018-09-27T09:20:14.764Z,9.25
2018-09-27T09:22:43.469Z,9.95
2018-09-27T09:25:12.172Z,10.25
2018-09-27T09:27:40.787Z,10.48
2018-09-27T09:30:10.456Z,9.43
2018-09-27T09:32:39.128Z,8.63
2018-09-27T09:35:07.709Z,8.18
2018-09-27T09:37:36.326Z,6.90
2018-09-27T09:40:04.928Z,6.35
2018-09-27T09:42:33.581Z,6.83
2018-09-27T09:45:02.134Z,6.60
2018-09-27T09:47:30.692Z,6.62
2018-09-27T09:49:59.232Z,6.70
2018-09-27T09:52:27.863Z,5.70
2018-09-27T09:54:56.432Z,6.12
2018-09-27T09:57:25.143Z,4.85
2018-09-27T09:59:53.721Z,5.40
2018-09-27T10:02:22.435Z,5.58
2018-09-27T10:04:51.120Z,5.62
2018-09-27T10:07:19.703Z,5.58
2018-09-27T10:09:48.333Z,5.85
2018-09-27T10:12:16.964Z,5.95
2018-09-27T10:14:45.532Z,5.22
2018-09-27T10:17:14.156Z,4.60
2018-09-27T10:19:42.732Z,4.62
2018-09-27T10:22:11.509Z,4.15
2018-09-27T10:24:40.094Z,4.08
2018-09-27T10:27:08.786Z,3.58
2018-09-27T10:29:37.375Z,3.40
2018-09-27T10:32:06.055Z,3.02
2018-09-27T10:34:34.745Z,3.50
2018-09-27T10:37:03.516Z,3.30
2018-09-27T10:39:32.135Z,2.98
2018-09-27T10:42:00.661Z,3.35
2018-09-27T10:44:29.286Z,2.65
2018-09-27T10:46:57.910Z,2.85
2018-09-27T10:49:26.438Z,2.55
2018-09-27T10:51:55.108Z,3.95
2018-09-27T10:54:23.829Z,3.30
2018-09-27T10:56:52.566Z,3.30
2018-09-27T10:59:21.128Z,2.67
2018-09-27T11:01:50.231Z,2.90
2018-09-27T11:04:18.836Z,2.65
2018-09-27T11:06:47.386Z,2.50
2018-09-27T11:09:16.133Z,3.00
2018-09-27T11:11:44.939Z,2.77
2018-09-27T11:14:13.513Z,2.70
2018-09-27T11:16:42.292Z,2.67
2018-09-27T11:19:10.809Z,2.95
2018-09-27T11:21:39.445Z,2.60
2018-09-27T11:24:07.979Z,2.30
2018-09-27T11:26:36.557Z,2.20
2018-09-27T11:29:10.606Z,2.72
2018-09-27T11:31:44.319Z,2.30
2018-09-27T11:34:12.883Z,3.87
2018-09-27T11:36:41.574Z,2.50
2018-09-27T11:39:11.027Z,2.75
2018-09-27T11:41:39.606Z,3.77
2018-09-27T11:44:08.469Z,2.52
2018-09-27T11:46:36.925Z,2.52
2018-09-27T11:49:05.664Z,2.35
2018-09-27T11:51:34.122Z,3.22
2018-09-27T11:54:03.013Z,2.50
2018-09-27T11:56:31.611Z,2.90
2018-09-27T11:59:00.244Z,2.35
2018-09-27T12:01:28.866Z,3.25
2018-09-27T12:03:57.764Z,2.95
2018-09-27T12:06:26.298Z,3.77
2018-09-27T12:08:57.011Z,2.67
2018-09-27T12:11:25.644Z,3.02
2018-09-27T12:13:54.247Z,3.15
2018-09-27T12:16:22.944Z,3.58
2018-09-27T12:18:52.756Z,3.00
2018-09-27T12:21:21.371Z,3.17
2018-09-27T12:23:50.028Z,3.65
2018-09-27T12:26:18.670Z,3.92
2018-09-27T12:28:48.167Z,3.70
2018-09-27T12:31:16.922Z,3.45
2018-09-27T12:33:45.609Z,3.27
2018-09-27T12:36:14.090Z,4.10
2018-09-27T12:38:42.802Z,3.22
2018-09-27T12:41:11.333Z,3.65
2018-09-27T12:43:40.014Z,4.70
2018-09-27T12:46:09.192Z,5.20
2018-09-27T12:48:37.831Z,4.40
2018-09-27T12:51:06.601Z,5.00
2018-09-27T12:53:35.140Z,5.13
2018-09-27T12:56:04.229Z,4.80
2018-09-27T12:58:32.885Z,4.73
2018-09-27T13:01:01.781Z,5.43
2018-09-27T13:03:32.429Z,4.63
2018-09-27T13:06:01.144Z,4.90
2018-09-27T13:08:29.913Z,5.50
2018-09-27T13:10:58.547Z,4.17
2018-09-27T13:13:27.159Z,3.77
2018-09-27T13:15:55.908Z,3.67
2018-09-27T13:18:25.644Z,5.50
2018-09-27T13:20:54.167Z,9.80
2018-09-27T13:23:22.753Z,3.80
2018-09-27T13:25:51.422Z,3.50
2018-09-27T13:28:20.035Z,6.07
2018-09-27T13:30:48.639Z,4.23
2018-09-27T13:33:17.374Z,4.30
2018-09-27T13:35:46.022Z,3.83
2018-09-27T13:38:14.515Z,4.47
2018-09-27T13:40:43.028Z,4.97
2018-09-27T13:43:11.736Z,3.60
2018-09-27T13:45:40.232Z,4.23
2018-09-27T13:48:08.841Z,4.00
2018-09-27T13:50:37.539Z,3.83
2018-09-27T13:53:06.261Z,3.03
2018-09-27T13:55:34.874Z,3.67
2018-09-27T13:58:03.468Z,2.93
2018-09-27T14:00:32.053Z,2.37
2018-09-27T14:03:00.675Z,2.10
2018-09-27T14:05:29.349Z,5.17
2018-09-27T14:07:57.907Z,1.90
2018-09-27T14:10:26.521Z,2.20
2018-09-27T14:12:55.104Z,1.90
2018-09-27T14:15:23.777Z,2.53
2018-09-27T14:17:52.337Z,2.87
2018-09-27T14:20:20.971Z,2.00
2018-09-27T14:22:49.513Z,2.50
2018-09-27T14:25:18.007Z,2.13
2018-09-27T14:27:46.561Z,4.53
2018-09-27T14:30:15.125Z,2.53
2018-09-27T14:32:43.665Z,3.33
2018-09-27T14:35:12.279Z,3.50
2018-09-27T14:37:40.799Z,2.97
2018-09-27T14:40:09.384Z,2.67
2018-09-27T14:42:37.958Z,2.90
2018-09-27T14:45:06.684Z,5.30
2018-09-27T14:47:35.368Z,3.03
2018-09-27T14:50:03.927Z,3.60
2018-09-27T14:52:32.586Z,3.20
2018-09-27T14:55:01.141Z,7.00
2018-09-27T14:57:29.728Z,3.37
2018-09-27T14:59:58.443Z,5.43
2018-09-27T15:02:27.010Z,4.33
2018-09-27T15:04:55.576Z,5.37
2018-09-27T15:07:24.165Z,4.23
2018-09-27T15:09:52.774Z,3.37
2018-09-27T15:12:21.239Z,2.87
2018-09-27T15:14:49.825Z,4.87
2018-09-27T15:17:18.402Z,3.03
2018-09-27T15:19:47.044Z,3.90
2018-09-27T15:22:16.160Z,4.67
2018-09-27T15:24:44.843Z,3.63
2018-09-27T15:27:13.485Z,4.47
2018-09-27T15:29:42.176Z,8.30
2018-09-27T15:32:10.939Z,4.87
2018-09-27T15:34:39.778Z,3.90
2018-09-27T15:37:08.436Z,7.43
2018-09-27T15:39:37.250Z,4.00
2018-09-27T15:42:05.833Z,4.07
2018-09-27T15:44:34.652Z,5.50
2018-09-27T15:47:03.479Z,4.97
2018-09-27T15:49:32.269Z,4.60
2018-09-27T15:52:00.950Z,7.00
2018-09-27T15:54:29.776Z,4.80
2018-09-27T15:56:58.395Z,5.17
2018-09-27T15:59:27.075Z,4.27
2018-09-27T16:01:55.745Z,6.13
2018-09-27T16:04:24.415Z,5.30
2018-09-27T16:06:53.147Z,6.37
2018-09-27T16:09:22.156Z,7.07
2018-09-27T16:11:52.107Z,5.53
2018-09-27T16:14:20.768Z,6.13
2018-09-27T16:16:49.748Z,12.47
2018-09-27T16:19:18.550Z,7.43
2018-09-27T16:21:49.263Z,7.17
2018-09-27T16:27:13.580Z,6.77
2018-09-27T16:29:42.943Z,6.90
2018-09-27T16:32:11.700Z,11.30
2018-09-27T16:34:40.499Z,9.80
2018-09-27T16:39:56.440Z,9.07
2018-09-27T16:42:25.597Z,9.27
2018-09-27T16:44:54.286Z,10.23
2018-09-27T16:47:23.216Z,10.43
2018-09-27T16:49:53.291Z,12.77
2018-09-27T16:52:23.029Z,12.03
2018-09-27T16:54:51.653Z,19.30
2018-09-27T16:57:20.511Z,12.67
2018-09-27T16:59:54.253Z,11.67
2018-09-27T17:02:23.487Z,8.73
2018-09-27T17:04:53.187Z,7.83
2018-09-27T17:07:22.393Z,6.27
2018-09-27T17:09:51.271Z,5.83
2018-09-27T17:12:20.198Z,6.57
2018-09-27T17:14:48.941Z,9.03
2018-09-27T17:17:17.761Z,6.83
2018-09-27T17:19:46.602Z,7.17
2018-09-27T17:22:15.395Z,5.10
2018-09-27T17:24:44.275Z,8.57
2018-09-27T17:27:12.773Z,9.87
2018-09-27T17:29:41.787Z,6.07
2018-09-27T17:32:10.571Z,3.83
2018-09-27T17:34:39.219Z,8.27
2018-09-27T17:37:08.054Z,4.37
2018-09-27T17:39:36.601Z,4.87
2018-09-27T17:42:05.231Z,4.90
2018-09-27T17:44:33.838Z,7.93
2018-09-27T17:47:02.353Z,5.13
2018-09-27T17:49:30.994Z,5.80
2018-09-27T17:51:59.516Z,4.33
2018-09-27T17:54:27.995Z,5.30
2018-09-27T17:56:56.760Z,8.03
2018-09-27T17:59:25.239Z,5.97
2018-09-27T18:01:53.832Z,6.07
2018-09-27T18:04:22.338Z,9.70
2018-09-27T18:06:51.012Z,5.50
2018-09-27T18:09:19.554Z,5.80
2018-09-27T18:11:48.047Z,6.53
2018-09-27T18:14:16.518Z,6.47
2018-09-27T18:16:45.493Z,5.90
2018-09-27T18:19:16.361Z,9.27
2018-09-27T18:21:45.365Z,6.97
2018-09-27T18:24:14.349Z,8.30
2018-09-27T18:26:43.297Z,6.40
2018-09-27T18:29:12.161Z,5.90
2018-09-27T18:31:41.156Z,5.97
2018-09-27T18:34:10.128Z,5.23
2018-09-27T18:36:39.058Z,8.73
2018-09-27T18:39:09.954Z,8.40
2018-09-27T18:41:39.060Z,6.20
2018-09-27T18:44:08.633Z,6.07
2018-09-27T18:46:37.930Z,5.83
2018-09-27T18:49:07.012Z,5.53
2018-09-27T18:51:36.429Z,7.87
2018-09-27T18:54:09.465Z,4.03
2018-09-27T18:56:38.132Z,4.10
2018-09-27T18:59:06.836Z,5.40
2018-09-27T19:01:35.525Z,8.07
2018-09-27T19:04:04.121Z,4.70
2018-09-27T19:06:32.711Z,5.53
2018-09-27T19:09:01.649Z,7.70
2018-09-27T19:11:30.493Z,10.40
2018-09-27T19:13:59.145Z,6.30
2018-09-27T19:16:27.787Z,8.83
2018-09-27T19:18:57.243Z,4.87
2018-09-27T19:21:25.920Z,6.80
2018-09-27T19:23:54.621Z,4.93
2018-09-27T19:26:23.251Z,6.10
2018-09-27T19:28:51.837Z,7.20
2018-09-27T19:31:20.804Z,8.70
2018-09-27T19:33:49.738Z,7.60
2018-09-27T19:36:18.836Z,7.47
2018-09-27T19:38:47.395Z,6.10
2018-09-27T19:41:15.940Z,6.80
2018-09-27T19:43:44.529Z,7.27
2018-09-27T19:46:13.148Z,5.90
2018-09-27T19:48:41.805Z,5.30
2018-09-27T19:51:10.436Z,7.20
2018-09-27T19:53:39.061Z,12.03
2018-09-27T19:56:08.047Z,5.57
2018-09-27T19:58:36.657Z,4.23
2018-09-27T20:01:05.111Z,6.33
2018-09-27T20:03:33.740Z,5.77
2018-09-27T20:06:02.383Z,4.57
2018-09-27T20:08:31.191Z,5.87
2018-09-27T20:10:59.680Z,7.37
2018-09-27T20:13:28.329Z,6.60
2018-09-27T20:15:58.111Z,9.03
2018-09-27T20:18:26.652Z,7.50
2018-09-27T20:20:55.219Z,7.27
2018-09-27T20:23:23.804Z,7.87
2018-09-27T20:25:52.510Z,6.50
2018-09-27T20:28:21.071Z,8.03
2018-09-27T20:30:49.590Z,7.37
2018-09-27T20:33:18.111Z,8.80
2018-09-27T20:35:46.569Z,9.90
2018-09-27T20:38:15.011Z,11.00
2018-09-27T20:40:43.449Z,8.83
2018-09-27T20:43:16.577Z,8.53
2018-09-27T20:45:45.991Z,9.33
2018-09-27T20:48:14.800Z,10.73
2018-09-27T20:50:45.272Z,8.23
2018-09-27T20:53:14.984Z,11.20
2018-09-27T20:55:44.374Z,10.33
2018-09-27T20:58:13.264Z,9.63
2018-09-27T21:00:41.753Z,7.47
2018-09-27T21:03:10.222Z,8.63
2018-09-27T21:05:38.699Z,13.90
2018-09-27T21:08:07.208Z,13.00
2018-09-27T21:10:36.917Z,12.10
2018-09-27T21:13:07.381Z,7.80
2018-09-27T21:15:36.371Z,7.70
2018-09-27T21:18:04.907Z,7.13
2018-09-27T21:20:33.387Z,7.60
2018-09-27T21:23:02.438Z,9.30
2018-09-27T21:25:31.870Z,8.27
2018-09-27T21:28:00.401Z,12.00
2018-09-27T21:30:28.974Z,11.90
2018-09-27T21:32:57.644Z,10.63
2018-09-27T21:35:26.163Z,8.27
2018-09-27T21:37:54.765Z,7.90
2018-09-27T21:40:23.311Z,7.37
2018-09-27T21:42:51.892Z,12.07
2018-09-27T21:45:20.511Z,6.50
2018-09-27T21:47:49.103Z,8.73
2018-09-27T21:50:17.868Z,10.57
2018-09-27T21:52:46.483Z,7.40
2018-09-27T21:55:15.113Z,6.23
2018-09-27T21:57:43.596Z,7.93
2018-09-27T22:00:12.136Z,7.10
2018-09-27T22:02:40.791Z,9.40
2018-09-27T22:05:09.349Z,6.27
2018-09-27T22:07:37.916Z,8.60
2018-09-27T22:10:06.532Z,9.77
2018-09-27T22:12:35.055Z,6.90
2018-09-27T22:15:03.563Z,6.10
2018-09-27T22:17:32.035Z,9.43
2018-09-27T22:20:00.510Z,7.93
2018-09-27T22:22:28.983Z,8.27
2018-09-27T22:24:57.852Z,7.47
2018-09-27T22:27:26.299Z,7.57
2018-09-27T22:29:54.757Z,6.10
2018-09-27T22:32:23.306Z,7.67
2018-09-27T22:34:52.864Z,5.93
2018-09-27T22:37:21.332Z,6.50
2018-09-27T22:39:50.332Z,7.93
2018-09-27T22:42:19.095Z,7.33
2018-09-27T22:44:47.919Z,8.40
2018-09-27T22:47:16.699Z,6.57
2018-09-27T22:49:45.409Z,7.27
2018-09-27T22:52:14.109Z,7.27
2018-09-27T22:54:42.884Z,7.90
2018-09-27T22:57:11.712Z,6.50
2018-09-27T22:59:40.598Z,7.20
2018-09-27T23:02:09.425Z,5.67
2018-09-27T23:04:38.464Z,6.80
2018-09-27T23:07:07.366Z,9.63
2018-09-27T23:09:36.359Z,7.27
2018-09-27T23:12:05.503Z,6.87
2018-09-27T23:14:34.463Z,8.73
2018-09-27T23:17:03.347Z,11.43
2018-09-27T23:19:32.230Z,7.67
2018-09-27T23:22:00.864Z,5.90
2018-09-27T23:24:29.523Z,7.83
2018-09-27T23:26:58.211Z,11.43
2018-09-27T23:29:26.900Z,8.03
2018-09-27T23:31:55.533Z,6.40
2018-09-27T23:34:24.268Z,6.07
2018-09-27T23:36:53.053Z,12.27
2018-09-27T23:39:21.779Z,6.00
2018-09-27T23:41:50.438Z,8.13
2018-09-27T23:44:19.336Z,8.73
2018-09-27T23:46:48.020Z,7.00
2018-09-27T23:49:16.726Z,6.33
2018-09-27T23:51:45.505Z,5.50
2018-09-27T23:54:14.195Z,6.90
2018-09-27T23:56:42.802Z,8.70
2018-09-27T23:59:11.442Z,7.03
